Flight Track Log - Related Links

Times and Time Zones

All times are in EDT time to prevent confusion due to time zone crossing. See the N749SS flight status page for this flight to view local times or setup timezone preferences in your user account.

Time Position Orientation Groundspeed Altitude Reporting Facility
EDT Latitude Longitude Course Direction KTS MPH feet Rate Location/Type
Sun 04:30:28 PM 26.1189 -81.8958 North 260 299 7,800  Level Miami Center
Sun 04:31:28 PM 26.1964 -81.8922 North 260 299 10,400 2,650 Climbing Miami Center
Sun 04:32:28 PM 26.3056 -81.8714 10° North 316 364 13,100 2,700 Climbing Miami Center
Sun 04:33:28 PM 26.4083 -81.8547 North 367 422 15,800 2,400 Climbing Miami Center
Sun 04:34:00 PM 26.7473 -81.7500 North  Level FlightAware Approximate
Sun 04:34:28 PM 26.5175 -81.8364 North 383 441 17,900  Level Miami Center
Sun 04:35:28 PM 26.6353 -81.8133 10° North 407 468 18,000 200 Climbing Miami Center
Sun 04:36:28 PM 26.7611 -81.7931 North 431 496 18,300 1,450 Climbing Miami Center
Sun 04:37:28 PM 26.8792 -81.7631 13° North 436 502 20,900 2,500 Climbing Miami Center
Sun 04:38:28 PM 26.9950 -81.7308 14° North 431 496 23,300 2,250 Climbing Miami Center
Sun 04:39:28 PM 27.1025 -81.7050 12° North 431 496 25,400 2,000 Climbing Miami Center
Sun 04:40:28 PM 27.2225 -81.6750 13° North 431 496 27,300 1,900 Climbing Miami Center
Sun 04:41:28 PM 27.3592 -81.6433 12° North 438 504 29,200 1,700 Climbing Miami Center
Sun 04:42:28 PM 27.4867 -81.6369 North 449 517 30,700 1,500 Climbing Miami Center
Sun 04:43:28 PM 27.6161 -81.6306 North 459 528 32,200 1,500 Climbing Miami Center
Sun 04:44:28 PM 27.7353 -81.6283 North 464 534 33,700 1,350 Climbing Miami Center
Sun 04:45:28 PM 27.8794 -81.6181 North 464 534 34,900 950 Climbing Miami Center
Sun 04:46:28 PM 28.0175 -81.6144 North 476 548 35,600 1,300 Climbing Miami Center
Sun 04:47:28 PM 28.1511 -81.6083 North 481 554 37,500 1,700 Climbing Miami Center
Sun 04:48:28 PM 28.2850 -81.6022 North 481 554 39,000 750 Climbing Miami Center
Sun 04:49:28 PM 28.4164 -81.5983 North 476 548 39,000  Level Miami Center
Sun 04:50:28 PM 28.5522 -81.5922 North 476 548 39,000  Level Miami Center
Sun 04:51:28 PM 28.6881 -81.5861 North 481 554 39,000  Level Miami Center
Sun 04:52:55 PM 28.8842 -81.5789 North 497 572 39,000  Level Jacksonville Center
Sun 04:53:55 PM 29.0197 -81.5722 North 492 566 39,000  Level Jacksonville Center
Sun 04:54:55 PM 29.1531 -81.5658 North 486 559 39,000  Level Jacksonville Center
Sun 04:55:55 PM 29.2867 -81.5592 North 480 552 39,000  Level Jacksonville Center
Sun 04:56:55 PM 29.4244 -81.5550 North 480 552 39,000  Level Jacksonville Center
Sun 04:57:55 PM 29.5600 -81.5483 North 480 552 39,000  Level Jacksonville Center
Sun 04:58:55 PM 29.6936 -81.5417 North 480 552 39,000  Level Jacksonville Center
Sun 04:59:55 PM 29.8292 -81.5350 North 480 552 39,000  Level Jacksonville Center
Sun 05:00:55 PM 29.9628 -81.5261 North 480 552 39,000  Level Jacksonville Center
Sun 05:01:55 PM 30.0858 -81.5219 North 480 552 39,000  Level Jacksonville Center
Sun 05:02:55 PM 30.2172 -81.5153 North 480 552 39,000  Level Jacksonville Center
Sun 05:03:55 PM 30.3508 -81.5108 North 475 547 39,000  Level Jacksonville Center
Sun 05:04:55 PM 30.4844 -81.4969 North 475 547 39,000  Level Jacksonville Center
Sun 05:05:55 PM 30.6117 -81.4903 North 470 541 39,000  Level Jacksonville Center
Sun 05:06:55 PM 30.7431 -81.4786 North 470 541 39,000  Level Jacksonville Center
Sun 05:07:55 PM 30.8725 -81.4694 North 465 535 39,000  Level Jacksonville Center
Sun 05:08:55 PM 31.0039 -81.4578 North 465 535 39,000  Level Jacksonville Center
Sun 05:09:55 PM 31.1353 -81.4483 North 465 535 39,000  Level Jacksonville Center
Sun 05:10:55 PM 31.2667 -81.4367 North 465 535 39,000  Level Jacksonville Center
Sun 05:11:55 PM 31.4125 -81.3978 13° North 470 541 39,000  Level Jacksonville Center
Sun 05:12:55 PM 31.5331 -81.3642 13° North 481 554 39,000  Level Jacksonville Center
Sun 05:13:55 PM 31.6786 -81.3253 13° North 487 560 39,000  Level Jacksonville Center
Sun 05:14:55 PM 31.7953 -81.2939 13° North 481 554 39,000  Level Jacksonville Center
Sun 05:15:55 PM 31.9408 -81.2547 13° North 481 554 39,000  Level Jacksonville Center
Sun 05:16:55 PM 32.0742 -81.2181 13° North 486 559 39,000  Level Jacksonville Center
Sun 05:17:55 PM 32.2031 -81.1936 North 473 544 39,000  Level Jacksonville Center
Sun 05:18:55 PM 32.3325 -81.1839 North 460 529 39,000  Level Jacksonville Center
Sun 05:19:55 PM 32.4450 -81.1792 North 460 529 39,000  Level Jacksonville Center
Sun 05:20:55 PM 32.5847 -81.1667 North 458 527 39,000  Level Jacksonville Center
Sun 05:21:55 PM 32.7100 -81.1544 North 458 527 39,000  Level Jacksonville Center
Sun 05:22:55 PM 32.8331 -81.1447 North 453 521 39,000  Level Jacksonville Center
Sun 05:23:55 PM 32.9539 -81.1350 North 443 510 39,000  Level Jacksonville Center
Sun 05:24:55 PM 33.0789 -81.1250 North 443 510 39,000  Level Jacksonville Center
Sun 05:25:55 PM 33.2061 -81.1125 North 443 510 39,000  Level Jacksonville Center
Sun 05:26:55 PM 33.3333 -81.1025 North 443 510 39,000  Level Jacksonville Center
Sun 05:27:55 PM 33.4583 -81.0900 North 443 510 39,000  Level Jacksonville Center
Sun 05:28:55 PM 33.5856 -81.0800 North 448 516 39,000  Level Jacksonville Center
Sun 05:29:55 PM 33.7106 -81.0700 North 448 516 39,000  Level Jacksonville Center
Sun 05:30:55 PM 33.8333 -81.0550 North 448 516 39,000  Level Jacksonville Center
Sun 05:33:58 PM 34.2119 -81.0169 North 444 511 39,000  Level Atlanta Center
Sun 05:34:58 PM 34.3328 -81.0050 North 444 511 39,000  Level Atlanta Center
Sun 05:35:58 PM 34.4558 -81.0006 North 438 504 39,000  Level Atlanta Center
Sun 05:36:58 PM 34.5806 -80.9836 North 431 496 39,000  Level Atlanta Center
Sun 05:37:58 PM 34.7033 -80.9714 North 437 503 39,000  Level Atlanta Center
Sun 05:38:58 PM 34.8181 -80.9622 North 442 509 39,000  Level Atlanta Center
Sun 05:39:58 PM 34.9408 -80.9475 North 442 509 39,000  Level Atlanta Center
Sun 05:40:58 PM 35.0614 -80.9331 North 437 503 39,000  Level Atlanta Center
Sun 05:41:58 PM 35.1842 -80.9181 North 437 503 39,000  Level Atlanta Center
Sun 05:42:58 PM 35.3047 -80.9033 North 442 509 39,000  Level Atlanta Center
Sun 05:43:58 PM 35.4339 -80.8908 North 442 509 39,000  Level Atlanta Center
Sun 05:44:58 PM 35.5586 -80.8733 North 442 509 39,000  Level Atlanta Center
Sun 05:45:58 PM 35.6856 -80.8633 North 447 514 39,000  Level Atlanta Center
Sun 05:46:58 PM 35.8125 -80.8506 North 447 514 39,000  Level Atlanta Center
Sun 05:47:58 PM 35.9394 -80.8381 North 447 514 39,000  Level Atlanta Center
Sun 05:48:58 PM 36.0642 -80.8253 North 447 514 39,000  Level Atlanta Center
Sun 05:49:58 PM 36.1869 -80.8128 North 447 514 39,000  Level Atlanta Center
Sun 05:50:58 PM 36.3053 -80.7978 North 441 507 39,000  Level Atlanta Center
Sun 05:51:58 PM 36.4281 -80.7850 North 441 507 39,000  Level Atlanta Center
Sun 05:52:58 PM 36.5528 -80.7722 North 441 507 39,000  Level Atlanta Center
Sun 05:53:58 PM 36.6733 -80.7569 North 441 507 39,000  Level Atlanta Center
Sun 05:54:58 PM 36.8067 -80.7461 North 434 499 39,000  Level Atlanta Center
Sun 05:56:46 PM 37.0247 -80.7222 North 434 499 39,000  Level Washington Center
Sun 05:57:44 PM 37.1528 -80.6994 North 444 511 39,000  Level Washington Center
Sun 05:58:45 PM 37.2758 -80.6556 16° North 450 518 39,000  Level Washington Center
Sun 05:59:45 PM 37.3858 -80.6183 15° North 459 528 39,000  Level Washington Center
Sun 06:00:46 PM 37.5106 -80.5769 15° North 459 528 39,000  Level Washington Center
Sun 06:01:44 PM 37.6356 -80.5353 15° North 459 528 39,000  Level Washington Center
Sun 06:02:45 PM 37.7581 -80.4933 15° North 459 528 39,000  Level Washington Center
Sun 06:03:46 PM 37.8828 -80.4514 15° North 459 528 39,000  Level Washington Center
Sun 06:04:44 PM 38.0183 -80.4022 16° North 459 528 39,000  Level Washington Center
Sun 06:05:44 PM 38.1408 -80.3628 14° North 459 528 39,000  Level Washington Center
Sun 06:06:45 PM 38.2636 -80.3203 15° North 459 528 39,000  Level Washington Center
Sun 06:07:47 PM 38.3861 -80.2803 14° North 459 528 39,000  Level Washington Center
Sun 06:08:44 PM 38.4981 -80.2422 15° North 459 528 39,000  Level Washington Center
Sun 06:10:55 PM 38.7719 -80.1369 17° North 453 521 39,000  Level Cleveland Center
Sun 06:11:57 PM 38.8947 -80.0922 16° North 455 524 39,000  Level Cleveland Center
Sun 06:12:59 PM 39.0183 -80.0606 11° North 455 524 39,000  Level Cleveland Center
Sun 06:14:01 PM 39.1431 -80.0411 North 453 521 39,000  Level Cleveland Center
Sun 06:15:03 PM 39.2667 -80.0133 10° North 453 521 39,000  Level Cleveland Center
Sun 06:16:05 PM 39.4133 -79.9811 10° North 451 519 39,000  Level Cleveland Center
Sun 06:17:07 PM 39.5336 -79.9528 10° North 445 512 39,000  Level Cleveland Center
Sun 06:18:09 PM 39.6550 -79.9264 10° North 444 511 39,000  Level Cleveland Center
Sun 06:19:11 PM 39.7739 -79.9003 10° North 438 504 39,000  Level Cleveland Center
Sun 06:20:13 PM 39.8928 -79.8725 10° North 437 503 39,000  Level Cleveland Center
Sun 06:21:16 PM 40.0108 -79.8464 10° North 436 502 39,000  Level Cleveland Center
Sun 06:22:18 PM 40.1519 -79.8150 10° North 435 501 39,000  Level Cleveland Center
Sun 06:23:20 PM 40.2689 -79.7889 10° North 433 498 39,000  Level Cleveland Center
Sun 06:24:22 PM 40.3853 -79.7633 North 432 497 39,000  Level Cleveland Center
Sun 06:25:24 PM 40.5014 -79.7369 10° North 431 496 39,000  Level Cleveland Center
Sun 06:26:26 PM 40.6417 -79.7050 10° North 430 495 39,000  Level Cleveland Center
Sun 06:27:28 PM 40.7589 -79.6786 10° North 430 495 39,000 -629 Level Cleveland Center
Sun 06:28:30 PM 40.8778 -79.6522 10° North 431 496 37,700 -1,355 Descending Cleveland Center
Sun 06:29:32 PM 40.9967 -79.6244 10° North 434 499 36,200 -1,742 Descending Cleveland Center
Sun 06:30:34 PM 41.1117 -79.5972 10° North 424 488 34,100 -1,056 Descending Cleveland Center
Sun 06:31:37 PM 41.2497 -79.5653 10° North 420 483 34,000 -48 Descending Cleveland Center
Sun 06:32:39 PM 41.3661 -79.5383 10° North 422 486 34,000  Level Cleveland Center
Sun 06:33:41 PM 41.4778 -79.5133 10° North 423 487 34,000 -48 Level Cleveland Center
Sun 06:34:43 PM 41.5933 -79.4853 10° North 423 487 33,900 -823 Descending Cleveland Center
Sun 06:35:45 PM 41.7086 -79.4600 North 420 483 32,300 -1,839 Descending Cleveland Center
Sun 06:36:47 PM 41.8494 -79.4269 10° North 426 490 30,100 -1,984 Descending Cleveland Center
Sun 06:37:49 PM 41.9700 -79.3983 10° North 427 491 28,200 -1,016 Descending Cleveland Center
Sun 06:38:51 PM 42.0819 -79.3722 10° North 424 488 28,000 -532 Descending Cleveland Center
Sun 06:39:53 PM 42.1994 -79.3442 10° North 428 493 27,100 -1,355 Descending Cleveland Center
Sun 06:40:55 PM 42.3192 -79.3161 10° North 439 505 25,200 -2,064 Descending Cleveland Center
Sun 06:41:58 PM 42.4636 -79.2814 10° North 443 510 22,800 -2,112 Descending Cleveland Center
Sun 06:43:00 PM 42.5792 -79.2817 360° North 412 474 20,800 -1,887 Descending Cleveland Center
Sun 06:44:02 PM 42.6919 -79.2953 355° North 408 470 18,900 -1,645 Descending Cleveland Center
Sun 06:45:04 PM 42.7889 -79.3028 357° North 340 391 17,400 -1,306 Descending Cleveland Center
Sun 06:46:06 PM 42.8708 -79.3122 355° North 294 338 16,200 -792 Descending Cleveland Center
Sun 06:46:50 PM 42.9167 -79.3000 11° North 280 322 16,000 -115 Descending Toronto Center
Sun 06:47:50 PM 43.0000 -79.3167 352° North 280 322 16,000 -550 Level Toronto Center
Sun 06:48:50 PM 43.0667 -79.2667 29° Northeast 300 345 14,900 -1,450 Descending Toronto Center
Sun 06:49:50 PM 43.1500 -79.2167 24° Northeast 300 345 13,100 -1,450 Descending Toronto Center
Sun 06:50:50 PM 43.2167 -79.2500 340° North 260 299 12,000 -550 Descending Toronto Center
Sun 06:51:50 PM 43.2667 -79.3167 316° Northwest 250 288 12,000  Level Toronto Center
Sun 06:52:50 PM 43.3333 -79.3500 340° North 250 288 12,000 -350 Level Toronto Center
Sun 06:53:50 PM 43.4000 -79.4000 331° Northwest 250 288 11,300 -500 Descending Toronto Center
Sun 06:54:50 PM 43.4500 -79.4500 324° Northwest 260 299 11,000 -650 Descending Toronto Center
Sun 06:55:50 PM 43.5167 -79.5000 331° Northwest 260 299 10,000 -1,350 Descending Toronto Center
Sun 06:56:50 PM 43.5833 -79.5167 350° North 250 288 8,300 -1,850 Descending Toronto Center
Sun 06:57:50 PM 43.6500 -79.5167 360° North 250 288 6,300 -1,150 Descending Toronto Center
Sun 06:58:50 PM 43.7167 -79.5167 360° North 250 288 6,000 -150 Descending Toronto Center
Sun 06:59:50 PM 43.8000 -79.5167 360° North 250 288 6,000 -200 Level Toronto Center
Sun 07:00:50 PM 43.8667 -79.5167 360° North 250 288 5,600 -500 Descending Toronto Center
Sun 07:01:50 PM 43.8833 -79.4167 77° East 250 288 5,000 -300 Descending Toronto Center
Sun 07:02:50 PM 43.8500 -79.3833 144° Southeast 200 230 5,000 -50 Level Toronto Center
Sun 07:03:50 PM 43.8167 -79.4167 216° Southwest 150 173 4,900 -500 Descending Toronto Center
Sun 07:04:50 PM 43.8000 -79.4500 235° Southwest 130 150 4,000 -800 Descending Toronto Center
Sun 07:05:50 PM 43.7667 -79.5000 227° Southwest 130 150 3,300 -750 Descending Toronto Center
Sun 07:06:50 PM 43.7500 -79.5167 216° Southwest 130 150 2,500 -800 Descending Toronto Center
Sun 07:07:50 PM 43.7167 -79.5667 227° Southwest 130 150 1,700 -700 Descending Toronto Center
Sun 07:08:50 PM 43.7000 -79.6167 245° Southwest 130 150 1,100 -550 Descending Toronto Center
Sun 07:09:50 PM 43.6667 -79.6333 200° South 110 127 600 -250 Descending Toronto Center
Sun 07:10:50 PM 43.6667 -79.6333 200° South 30 35 600  Level Toronto Center
Sun 07:11:50 PM 43.6667 -79.6333 200° South 20 23 600  Level Toronto Center
Sun 07:12:50 PM 43.6833 -79.6333 360° North 20 23 600  Level Toronto Center

Login

Don't have an account? Register now (free) for customized features, flight alerts, and more!